Time;durP1;ratioP1;P1;durP2;ratioP2;P2;SDS_P1;SDS_P2;PMS_P1;PMS_P2;Temp;Humidity;BMP_temperature;BMP_pressure;BME280_temperature;BME280_humidity;BME280_pressure;Samples;Min_cycle;Max_cycle;Signal;HPM_P1;HPM_P2
2022/11/18 00:00:44;;;;;;;18.02;13.78;;;;;;;3.85;93.34;98994.88;3011841;76;20967;-88
2022/11/18 00:04:45;;;;;;;24.30;12.88;;;;;;;3.84;93.79;98997.16;3020377;76;20960;-88
2022/11/18 00:08:47;;;;;;;21.80;14.58;;;;;;;3.86;93.59;99001.83;3039775;76;21000;-88
2022/11/18 00:17:08;;;;;;;15.80;12.37;;;;;;;3.85;93.06;98998.83;3025505;76;21041;-88
2022/11/18 00:21:11;;;;;;;22.22;14.40;;;;;;;3.89;93.94;98999.45;3034224;77;21447;-88
2022/11/18 00:25:12;;;;;;;18.35;13.40;;;;;;;3.87;93.02;98993.47;3013477;76;21545;-88
2022/11/18 00:29:15;;;;;;;21.82;13.18;;;;;;;3.94;94.06;98991.22;3039815;76;20983;-88
2022/11/18 00:33:16;;;;;;;20.37;13.48;;;;;;;3.96;95.09;98987.50;3004038;77;20944;-88
2022/11/18 00:37:17;;;;;;;26.73;17.62;;;;;;;3.99;95.54;98996.97;3016773;76;21058;-88
2022/11/18 00:41:19;;;;;;;21.45;14.13;;;;;;;3.96;95.90;98989.31;3037306;77;21099;-88
2022/11/18 00:45:21;;;;;;;19.52;14.40;;;;;;;3.90;95.58;98987.13;2997674;78;20957;-88
2022/11/18 00:49:23;;;;;;;17.98;13.83;;;;;;;3.84;95.42;98994.53;2978895;78;21003;-88
2022/11/18 00:53:26;;;;;;;21.90;15.68;;;;;;;3.77;95.40;98989.83;2945621;78;21261;-87
2022/11/18 00:57:27;;;;;;;20.50;13.80;;;;;;;3.77;95.69;99001.67;2971669;78;20991;-88
2022/11/18 01:01:28;;;;;;;17.02;12.85;;;;;;;3.66;95.24;98981.42;2955046;78;21471;-88
2022/11/18 01:05:30;;;;;;;18.60;13.53;;;;;;;3.68;95.94;98986.95;2987967;78;20995;-87
2022/11/18 01:09:31;;;;;;;20.88;12.33;;;;;;;3.66;96.89;98982.73;2938512;78;21511;-87
2022/11/18 01:13:32;;;;;;;16.35;12.90;;;;;;;3.58;96.91;98980.67;2938392;78;21002;-87
2022/11/18 01:17:33;;;;;;;18.35;12.68;;;;;;;3.56;96.37;98993.95;2947808;78;21064;-88
2022/11/18 01:21:35;;;;;;;15.55;13.90;;;;;;;3.52;96.05;98984.59;3012182;78;20989;-87
2022/11/18 01:25:39;;;;;;;16.20;10.70;;;;;;;3.49;96.97;98992.70;2968766;78;21030;-87
2022/11/18 01:29:40;;;;;;;23.85;15.10;;;;;;;3.42;96.88;98982.28;2981896;78;21014;-88
2022/11/18 01:33:42;;;;;;;18.35;12.50;;;;;;;3.39;97.42;98978.57;2981067;78;21001;-88
2022/11/18 01:37:43;;;;;;;20.88;13.45;;;;;;;3.39;97.59;98989.09;2987845;78;21003;-88
2022/11/18 01:41:45;;;;;;;15.23;11.22;;;;;;;3.37;98.39;98998.88;2946095;78;21014;-87
2022/11/18 01:45:50;;;;;;;20.10;13.55;;;;;;;3.33;97.09;98992.14;2995348;77;21007;-87
2022/11/18 01:50:00;;;;;;;20.48;13.72;;;;;;;3.22;97.30;98987.20;3020470;77;21055;-87
2022/11/18 01:54:13;;;;;;;18.75;11.35;;;;;;;3.18;97.01;98988.84;3038182;76;21010;-86
2022/11/18 01:58:28;;;;;;;19.98;13.25;;;;;;;3.11;96.91;98985.80;2999603;77;20987;-86
2022/11/18 02:02:33;;;;;;;12.63;11.03;;;;;;;3.16;97.46;98988.97;3020961;77;21054;-87
2022/11/18 02:06:35;;;;;;;20.90;13.22;;;;;;;3.12;97.83;98985.70;2997083;76;21041;-88
2022/11/18 02:10:37;;;;;;;19.23;14.28;;;;;;;3.13;98.70;98993.10;2988191;77;21018;-87
2022/11/18 02:14:42;;;;;;;22.22;14.03;;;;;;;3.10;98.31;98994.18;3020525;77;21042;-87
2022/11/18 02:19:00;;;;;;;15.80;11.08;;;;;;;3.14;98.53;98994.78;2988075;78;20987;-87
2022/11/18 02:23:38;;;;;;;16.82;11.63;;;;;;;3.11;98.63;98992.38;3008039;76;21011;-87
2022/11/18 02:28:17;;;;;;;17.70;13.78;;;;;;;3.12;98.11;98996.22;3014688;76;21038;-88
2022/11/18 02:32:23;;;;;;;19.95;13.58;;;;;;;2.98;98.54;98981.45;3031199;77;21156;-87
2022/11/18 02:36:48;;;;;;;17.35;12.82;;;;;;;3.00;98.28;98980.86;2976514;77;21007;-87
2022/11/18 02:40:58;;;;;;;20.52;14.60;;;;;;;3.03;98.54;98980.27;3045557;76;20957;-88
2022/11/18 02:45:10;;;;;;;18.98;12.58;;;;;;;3.01;98.33;98984.31;2984244;77;21596;-88
2022/11/18 02:49:19;;;;;;;17.37;11.95;;;;;;;3.07;99.02;98981.73;2975339;78;21514;-87
2022/11/18 02:53:23;;;;;;;17.00;12.98;;;;;;;3.08;98.30;98978.15;2958703;78;21041;-87
2022/11/18 02:57:28;;;;;;;17.92;13.58;;;;;;;3.03;98.64;98965.83;2963816;79;21037;-88
2022/11/18 03:01:33;;;;;;;21.00;13.25;;;;;;;3.06;99.11;98970.40;2889815;81;21012;-88
2022/11/18 03:05:47;;;;;;;17.12;12.82;;;;;;;3.04;99.66;98953.05;2806849;82;21027;-88
2022/11/18 03:09:51;;;;;;;17.67;12.80;;;;;;;3.04;99.24;98950.42;2842085;82;21569;-89
2022/11/18 03:14:19;;;;;;;22.35;14.13;;;;;;;2.95;99.66;98937.48;2858152;81;21632;-89
2022/11/18 03:18:59;;;;;;;16.32;12.90;;;;;;;2.93;99.29;98939.38;2692294;84;21075;-89
2022/11/18 03:23:21;;;;;;;20.55;15.75;;;;;;;2.97;99.49;98945.62;2752370;85;21136;-89
2022/11/18 03:27:51;;;;;;;17.37;13.22;;;;;;;2.96;99.17;98947.88;2683877;86;21107;-88
2022/11/18 03:32:12;;;;;;;22.10;15.30;;;;;;;2.90;100.00;98961.92;2724548;84;21120;-88
2022/11/18 03:36:16;;;;;;;23.62;16.80;;;;;;;2.92;100.00;98967.42;2677926;87;21099;-88
2022/11/18 03:40:30;;;;;;;28.02;15.95;;;;;;;2.94;100.00;98960.27;2697063;86;21127;-89
2022/11/18 03:44:36;;;;;;;20.12;15.32;;;;;;;2.87;100.00;98958.21;2734894;85;21102;-89
2022/11/18 03:48:44;;;;;;;16.80;13.03;;;;;;;2.82;100.00;98962.47;2707316;86;21088;-89
2022/11/18 03:52:48;;;;;;;19.85;13.45;;;;;;;2.69;100.00;98965.13;2742440;85;21047;-88
2022/11/18 03:56:54;;;;;;;18.77;14.43;;;;;;;2.66;100.00;98960.92;2855392;82;20975;-88
2022/11/18 04:01:04;;;;;;;17.30;13.03;;;;;;;2.56;100.00;98962.04;2864187;81;21052;-88
2022/11/18 04:05:09;;;;;;;19.60;13.10;;;;;;;2.52;100.00;98968.45;2931906;78;21041;-88
2022/11/18 04:09:22;;;;;;;23.65;15.93;;;;;;;2.47;100.00;98974.51;2953266;79;21096;-88
2022/11/18 04:13:28;;;;;;;22.30;15.18;;;;;;;2.37;100.00;98965.12;2960383;79;21592;-88
2022/11/18 04:17:29;;;;;;;22.05;14.05;;;;;;;2.39;100.00;98965.00;2974914;78;21033;-88
2022/11/18 04:21:30;;;;;;;22.07;14.35;;;;;;;2.37;100.00;98959.02;2965016;79;21014;-88
2022/11/18 04:25:32;;;;;;;23.87;14.18;;;;;;;2.39;100.00;98957.97;2958368;79;21053;-87
2022/11/18 04:29:33;;;;;;;21.60;16.05;;;;;;;2.37;100.00;98959.87;2918901;79;21041;-87
2022/11/18 04:33:35;;;;;;;26.42;17.27;;;;;;;2.35;100.00;98956.48;2968952;79;21527;-87
2022/11/18 04:37:36;;;;;;;22.82;16.50;;;;;;;2.45;100.00;98972.92;2972042;79;21021;-87
2022/11/18 04:41:56;;;;;;;26.40;18.50;;;;;;;2.45;100.00;98975.55;2968517;78;21034;-87
2022/11/18 04:45:57;;;;;;;27.67;18.07;;;;;;;2.55;100.00;98975.26;3021718;76;21293;-88
2022/11/18 04:49:58;;;;;;;29.05;18.23;;;;;;;2.61;100.00;98980.56;2994033;76;21007;-88
2022/11/18 04:53:59;;;;;;;24.85;19.05;;;;;;;2.60;100.00;98981.05;2990456;78;20981;-87
2022/11/18 04:58:01;;;;;;;31.05;18.48;;;;;;;2.51;100.00;98979.05;3023209;77;21432;-87
2022/11/18 05:02:02;;;;;;;28.38;17.77;;;;;;;2.48;100.00;98983.20;3035473;76;21059;-88
2022/11/18 05:06:05;;;;;;;32.45;21.10;;;;;;;2.49;100.00;98984.88;3021730;76;21517;-87
2022/11/18 05:10:07;;;;;;;27.95;19.10;;;;;;;2.47;100.00;98989.41;3015047;78;20983;-87
2022/11/18 05:14:09;;;;;;;24.90;17.02;;;;;;;2.39;100.00;98986.84;3021095;76;20968;-87
2022/11/18 05:18:10;;;;;;;22.55;16.87;;;;;;;2.38;100.00;98991.73;3039055;76;21001;-87
2022/11/18 05:22:13;;;;;;;26.20;17.77;;;;;;;2.41;100.00;99007.27;3044494;76;21028;-87
2022/11/18 05:26:14;;;;;;;26.60;20.25;;;;;;;2.43;100.00;99002.74;3017822;76;21000;-86
2022/11/18 05:30:16;;;;;;;24.23;17.00;;;;;;;2.37;100.00;99002.32;3035650;76;20984;-88
2022/11/18 05:34:18;;;;;;;21.60;17.00;;;;;;;2.34;100.00;99006.47;3022290;76;20990;-87
2022/11/18 05:38:23;;;;;;;26.97;17.35;;;;;;;2.26;100.00;99009.16;3003845;77;20991;-88
2022/11/18 05:46:50;;;;;;;25.02;19.05;;;;;;;2.13;100.00;99024.03;3010537;76;20979;-88
2022/11/18 05:50:54;;;;;;;30.80;19.50;;;;;;;2.07;100.00;99021.83;3004724;77;21432;-87
2022/11/18 05:55:03;;;;;;;31.10;19.77;;;;;;;2.05;100.00;99035.04;2990541;77;21575;-88
2022/11/18 05:59:05;;;;;;;29.02;19.05;;;;;;;2.03;100.00;99032.99;3044096;77;21508;-87
2022/11/18 06:03:12;;;;;;;27.50;18.02;;;;;;;2.05;100.00;99035.04;2984824;77;21034;-87
2022/11/18 06:07:39;;;;;;;25.82;17.02;;;;;;;2.02;99.47;99040.95;2949933;80;21557;-87
2022/11/18 06:11:43;;;;;;;;;;;;;;;2.00;99.18;99050.25;2947380;79;21023;-87
2022/11/18 06:15:46;;;;;;;33.78;21.45;;;;;;;2.01;99.58;99054.55;2928321;79;20193;-88
2022/11/18 06:19:47;;;;;;;24.32;15.98;;;;;;;2.05;98.80;99061.27;2896591;80;21050;-88
2022/11/18 06:23:49;;;;;;;21.97;17.70;;;;;;;1.98;96.92;99073.13;2887339;81;21027;-87
2022/11/18 06:27:53;;;;;;;26.15;16.87;;;;;;;1.93;96.57;99083.91;2885184;80;21062;-88
2022/11/18 06:31:55;;;;;;;25.25;15.93;;;;;;;1.89;95.84;99088.13;2904847;79;21030;-87
2022/11/18 06:35:56;;;;;;;27.05;18.32;;;;;;;1.89;95.18;99090.75;2915945;80;21059;-88
2022/11/18 06:39:57;;;;;;;27.77;18.87;;;;;;;1.78;94.35;99109.34;2897802;79;20979;-87
2022/11/18 06:43:59;;;;;;;26.37;17.50;;;;;;;1.70;95.23;99104.59;2891152;80;21712;-88
2022/11/18 06:48:01;;;;;;;27.32;18.45;;;;;;;1.65;94.65;99103.20;2905735;80;20995;-87
2022/11/18 06:52:02;;;;;;;30.32;17.52;;;;;;;1.63;96.04;99091.48;2887698;80;21015;-87
2022/11/18 06:56:08;;;;;;;31.87;21.45;;;;;;;1.65;97.56;99092.72;2882006;80;21494;-88
2022/11/18 07:00:11;;;;;;;25.70;19.02;;;;;;;1.59;98.61;99111.47;2893994;80;20990;-88
2022/11/18 07:04:12;;;;;;;32.95;21.77;;;;;;;1.52;99.75;99118.88;2916256;79;21034;-88
2022/11/18 07:08:14;;;;;;;32.73;21.52;;;;;;;1.42;100.00;99127.30;2937530;80;21007;-87
2022/11/18 07:12:15;;;;;;;33.00;22.90;;;;;;;1.34;100.00;99124.78;2920036;80;21023;-87
2022/11/18 07:16:23;;;;;;;58.55;30.80;;;;;;;1.25;100.00;99128.36;2923108;80;21069;-87
2022/11/18 07:20:24;;;;;;;57.67;33.48;;;;;;;1.24;100.00;99124.05;2933088;79;21012;-87
2022/11/18 07:24:25;;;;;;;51.65;32.75;;;;;;;1.13;100.00;99125.17;2886765;79;21038;-86
2022/11/18 07:28:28;;;;;;;53.10;32.10;;;;;;;1.07;100.00;99129.00;2944864;78;20973;-86
2022/11/18 07:32:32;;;;;;;49.58;30.77;;;;;;;1.06;100.00;99133.04;2943920;80;20970;-87
2022/11/18 07:36:34;;;;;;;72.30;42.17;;;;;;;0.99;100.00;99139.11;3030796;76;21042;-87
2022/11/18 07:40:35;;;;;;;52.50;32.38;;;;;;;0.98;100.00;99147.91;3043202;76;21049;-87
2022/11/18 07:44:36;;;;;;;49.30;26.75;;;;;;;0.97;100.00;99137.88;3020977;76;21728;-87
2022/11/18 07:48:37;;;;;;;57.17;34.23;;;;;;;0.96;100.00;99147.16;3039127;76;21023;-87
2022/11/18 07:52:39;;;;;;;69.30;43.10;;;;;;;0.92;100.00;99129.47;3027120;77;21031;-88
2022/11/18 07:56:40;;;;;;;46.10;29.30;;;;;;;0.93;100.00;99142.11;3021156;78;21598;-88
2022/11/18 08:00:41;;;;;;;58.33;33.98;;;;;;;0.85;100.00;99146.50;3037462;76;20983;-87
2022/11/18 08:04:57;;;;;;;55.83;32.88;;;;;;;0.88;100.00;99152.86;3039956;76;21585;-88
2022/11/18 08:08:58;;;;;;;45.80;29.07;;;;;;;0.87;100.00;99155.55;3018257;76;20992;-88
2022/11/18 08:12:59;;;;;;;48.45;28.38;;;;;;;0.96;100.00;99149.78;3048398;76;21056;-88
2022/11/18 08:17:01;;;;;;;41.50;26.68;;;;;;;1.00;100.00;99152.58;3052138;76;20929;-89
2022/11/18 08:21:03;;;;;;;49.35;33.15;;;;;;;1.07;100.00;99150.44;3038463;76;20999;-87
2022/11/18 08:25:06;;;;;;;53.92;33.73;;;;;;;1.05;100.00;99143.14;3053195;75;21034;-87
2022/11/18 08:29:07;;;;;;;42.17;28.10;;;;;;;1.05;100.00;99160.17;3049620;76;20980;-89
2022/11/18 08:33:08;;;;;;;38.40;29.27;;;;;;;1.01;99.21;99156.88;3018494;76;21606;-89
2022/11/18 08:37:10;;;;;;;45.30;30.05;;;;;;;1.04;98.54;99164.55;3031339;76;21020;-90
2022/11/18 08:41:14;;;;;;;50.25;31.40;;;;;;;1.06;98.25;99173.64;3039671;77;21493;-92
2022/11/18 08:45:16;;;;;;;42.43;29.40;;;;;;;1.10;97.90;99168.58;3063158;75;21000;-93
2022/11/18 08:49:17;;;;;;;35.23;22.48;;;;;;;1.21;97.96;99170.55;3050531;76;20985;-91
2022/11/18 08:53:18;;;;;;;57.65;34.08;;;;;;;1.24;96.00;99171.66;2981347;76;20995;-92
2022/11/18 08:57:20;;;;;;;70.25;36.30;;;;;;;1.32;96.00;99177.75;3040627;76;21533;-93
2022/11/18 09:01:22;;;;;;;56.90;31.50;;;;;;;1.28;94.21;99180.56;3054352;76;21539;-93
2022/11/18 09:05:23;;;;;;;87.20;42.05;;;;;;;1.37;92.82;99188.78;3013989;77;20984;-91
2022/11/18 09:09:24;;;;;;;69.62;40.28;;;;;;;1.34;91.94;99183.73;3033652;76;21626;-92
2022/11/18 09:13:26;;;;;;;45.90;27.35;;;;;;;1.36;92.06;99180.09;3014717;77;20984;-92
2022/11/18 09:17:27;;;;;;;74.77;37.20;;;;;;;1.28;91.01;99177.94;3024781;77;20980;-92
2022/11/18 09:21:43;;;;;;;45.67;30.65;;;;;;;1.34;91.45;99187.21;3027197;78;21028;-92
2022/11/18 09:25:44;;;;;;;43.55;29.75;;;;;;;1.34;90.97;99196.38;2979886;77;20960;-91
2022/11/18 09:29:46;;;;;;;49.00;27.77;;;;;;;1.30;89.93;99197.97;3058721;76;20973;-92
2022/11/18 09:33:47;;;;;;;37.70;24.87;;;;;;;1.26;89.84;99197.30;3074450;76;20957;-93
2022/11/18 09:37:48;;;;;;;43.63;26.55;;;;;;;1.17;89.08;99200.49;3044568;76;21019;-93
2022/11/18 09:42:15;;;;;;;69.60;34.58;;;;;;;1.24;90.13;99198.72;3038459;76;20963;-93
2022/11/18 09:46:41;;;;;;;53.38;29.60;;;;;;;1.28;89.94;99202.83;3027897;76;21566;-92
2022/11/18 09:50:42;;;;;;;61.15;34.25;;;;;;;1.21;88.76;99206.77;3037932;77;21013;-91
2022/11/18 09:54:44;;;;;;;49.48;27.45;;;;;;;1.20;88.89;99210.33;3019287;76;21026;-93
2022/11/18 09:58:46;;;;;;;40.43;27.15;;;;;;;1.25;89.13;99210.88;3008120;77;21575;-93
2022/11/18 10:03:11;;;;;;;40.03;25.65;;;;;;;1.21;87.17;99218.56;3051633;76;21018;-93
2022/11/18 10:07:29;;;;;;;41.08;27.02;;;;;;;1.16;87.09;99211.91;3008237;77;21657;-92
2022/11/18 10:11:55;;;;;;;37.03;24.98;;;;;;;1.09;86.86;99216.66;3042836;77;21034;-92
2022/11/18 10:16:44;;;;;;;37.13;21.48;;;;;;;1.08;87.17;99221.08;2921270;78;21030;-93
2022/11/18 10:25:34;;;;;;;30.77;22.40;;;;;;;1.10;85.78;99227.52;3035510;76;21039;-92
2022/11/18 10:29:35;;;;;;;33.58;21.75;;;;;;;1.04;85.08;99225.27;3052212;76;21032;-92
2022/11/18 10:33:38;;;;;;;32.67;23.02;;;;;;;1.07;85.45;99230.32;3015543;76;20967;-90
2022/11/18 10:37:40;;;;;;;35.90;19.77;;;;;;;0.97;84.60;99230.84;3032380;77;21561;-93
2022/11/18 10:41:45;;;;;;;29.98;20.80;;;;;;;0.98;84.01;99224.70;3015654;77;21032;-91
2022/11/18 10:45:47;;;;;;;39.85;23.25;;;;;;;0.99;83.25;99226.84;3056312;75;21551;-92
2022/11/18 10:49:48;;;;;;;29.07;20.95;;;;;;;0.92;83.03;99216.37;2998580;76;21073;-91
2022/11/18 10:54:22;;;;;;;34.33;23.80;;;;;;;0.97;82.90;99236.57;2995418;77;21045;-92
2022/11/18 10:58:48;;;;;;;29.98;20.65;;;;;;;0.98;83.24;99237.80;3000042;77;21014;-90
2022/11/18 11:02:49;;;;;;;21.95;17.52;;;;;;;0.98;81.96;99238.25;3018117;77;21018;-92
2022/11/18 11:06:51;;;;;;;30.17;19.67;;;;;;;1.06;83.41;99241.73;2976900;78;21672;-92
2022/11/18 11:10:57;;;;;;;28.10;18.17;;;;;;;1.05;81.99;99249.22;2983998;76;21034;-93
2022/11/18 11:15:06;;;;;;;28.17;19.12;;;;;;;1.06;81.93;99258.76;2997331;76;21671;-90
2022/11/18 11:19:11;;;;;;;30.40;17.98;;;;;;;1.05;81.24;99259.70;3030413;76;20983;-92
2022/11/18 11:23:15;;;;;;;26.65;17.75;;;;;;;1.07;81.21;99242.11;3046108;76;21574;-91
2022/11/18 11:27:48;;;;;;;30.25;20.27;;;;;;;1.10;80.54;99244.54;3054350;76;20971;-91
2022/11/18 11:32:04;;;;;;;23.73;15.03;;;;;;;1.14;80.86;99244.73;3053040;76;21019;-92
2022/11/18 11:36:26;;;;;;;27.73;17.43;;;;;;;1.16;79.80;99246.78;3040723;76;21003;-91
2022/11/18 11:40:58;;;;;;;31.33;18.15;;;;;;;1.18;80.14;99246.26;3045825;76;21018;-91
2022/11/18 11:45:44;;;;;;;32.53;22.55;;;;;;;1.23;81.39;99232.86;3045347;75;21042;-91
2022/11/18 11:50:06;;;;;;;41.37;27.52;;;;;;;1.28;81.81;99243.45;3049284;75;21569;-90
2022/11/18 11:54:22;;;;;;;43.83;27.13;;;;;;;1.32;79.54;99256.36;2996866;77;21584;-92
2022/11/18 11:58:41;;;;;;;40.40;27.58;;;;;;;1.40;80.43;99264.13;2998736;77;20967;-91
2022/11/18 12:08:06;;;;;;;40.38;25.77;;;;;;;1.42;79.36;99267.98;3038521;77;21388;-91
2022/11/18 12:12:37;;;;;;;42.33;27.58;;;;;;;1.47;80.47;99263.75;2960508;78;21082;-91
2022/11/18 12:17:03;;;;;;;44.18;27.62;;;;;;;1.47;80.63;99257.20;2895820;81;21050;-91
2022/11/18 12:21:04;;;;;;;37.27;24.83;;;;;;;1.48;80.91;99248.44;2925202;81;21023;-91
2022/11/18 12:25:44;;;;;;;54.25;31.57;;;;;;;1.47;81.18;99264.61;2922429;79;21027;-91
2022/11/18 12:29:54;;;;;;;57.08;32.40;;;;;;;1.40;81.51;99256.76;2923087;79;21063;-91
2022/11/18 12:34:05;;;;;;;52.62;33.53;;;;;;;1.38;81.24;99265.19;2941207;79;21046;-91
2022/11/18 12:38:12;;;;;;;58.13;35.55;;;;;;;1.46;82.27;99272.55;2927182;80;21039;-91
2022/11/18 12:47:04;;;;;;;77.67;34.53;;;;;;;1.41;81.58;99266.30;2813985;83;21083;-92
2022/11/18 12:51:20;;;;;;;43.87;26.97;;;;;;;1.33;81.61;99272.45;2811822;80;21034;-91
2022/11/18 12:55:29;;;;;;;51.58;33.40;;;;;;;1.28;82.08;99289.30;2913941;79;21097;-92
2022/11/18 12:59:46;;;;;;;55.58;32.83;;;;;;;1.24;83.40;99284.32;2977654;79;21063;-92
2022/11/18 13:03:47;;;;;;;52.25;30.85;;;;;;;1.24;82.39;99298.28;2907827;80;21003;-92
2022/11/18 13:12:28;;;;;;;46.10;27.40;;;;;;;1.31;84.23;99297.91;2934404;79;21550;-91
2022/11/18 13:23:50;;;;;;;38.55;24.45;;;;;;;1.18;82.78;99306.51;3036912;78;21032;-91
2022/11/18 13:25:35;;;;;;;63.98;33.67;;;;;;;1.04;83.47;99319.08;3005580;76;21000;-92
2022/11/18 13:29:50;;;;;;;43.52;28.65;;;;;;;1.00;85.42;99321.50;3008755;78;21558;-92
2022/11/18 13:33:52;;;;;;;55.13;30.57;;;;;;;0.88;85.40;99325.67;2977274;76;21003;-92
2022/11/18 13:37:58;;;;;;;29.98;20.48;;;;;;;0.80;84.54;99327.41;3021014;76;20989;-91
2022/11/18 13:42:04;;;;;;;33.18;19.10;;;;;;;0.75;84.54;99338.63;3001330;78;21069;-91
2022/11/18 13:46:17;;;;;;;27.40;18.23;;;;;;;0.61;83.76;99335.92;3032762;77;21019;-91
2022/11/18 13:50:52;;;;;;;28.15;18.23;;;;;;;0.54;83.66;99339.34;2994803;77;21030;-92
2022/11/18 13:54:57;;;;;;;31.00;17.82;;;;;;;0.55;83.25;99347.57;3039389;77;20999;-91
2022/11/18 13:59:00;;;;;;;26.52;15.48;;;;;;;0.54;84.29;99351.98;3039885;77;20981;-92
2022/11/18 14:03:07;;;;;;;24.70;15.83;;;;;;;0.55;84.45;99354.97;3041800;76;21086;-90
2022/11/18 14:07:29;;;;;;;25.00;14.75;;;;;;;0.54;83.69;99360.28;3045168;76;21039;-91
2022/11/18 14:11:41;;;;;;;21.77;14.65;;;;;;;0.58;83.73;99362.27;3047035;76;20999;-92
2022/11/18 14:15:44;;;;;;;19.25;13.40;;;;;;;0.63;83.10;99368.95;3046425;77;21598;-92
2022/11/18 14:19:53;;;;;;;26.40;15.20;;;;;;;0.58;82.30;99380.11;2972705;78;21585;-92
2022/11/18 14:23:54;;;;;;;19.90;13.68;;;;;;;0.51;80.79;99382.70;3037211;77;21016;-92
2022/11/18 14:28:18;;;;;;;19.42;13.08;;;;;;;0.49;80.86;99389.79;2982194;77;21022;-91
2022/11/18 14:32:22;;;;;;;17.12;12.68;;;;;;;0.55;80.44;99382.45;2989640;77;20999;-90
2022/11/18 14:36:23;;;;;;;32.40;17.12;;;;;;;0.61;79.69;99389.13;2938569;79;21034;-91
2022/11/18 14:40:24;;;;;;;16.17;12.28;;;;;;;0.63;77.96;99393.81;2987343;77;20988;-90
2022/11/18 14:44:27;;;;;;;16.00;10.25;;;;;;;0.59;78.23;99394.06;2827455;80;21085;-90
2022/11/18 14:48:33;;;;;;;17.55;8.90;;;;;;;0.59;77.79;99398.84;3018157;76;20964;-90
2022/11/18 14:52:41;;;;;;;18.50;12.33;;;;;;;0.67;78.52;99403.18;2829798;81;73079;-56
2022/11/18 14:56:44;;;;;;;12.63;8.75;;;;;;;0.73;78.43;99408.55;2820386;83;21534;-56
2022/11/18 15:00:48;;;;;;;15.50;9.38;;;;;;;0.76;77.21;99412.75;2842657;82;21035;-57
2022/11/18 15:04:51;;;;;;;25.17;13.28;;;;;;;0.74;76.32;99414.16;2843774;82;21003;-56
2022/11/18 15:09:10;;;;;;;31.33;13.62;;;;;;;0.71;75.71;99423.02;2808939;83;21011;-58
2022/11/18 15:13:09;;;;;;;18.85;12.07;;;;;;;0.75;76.95;99422.84;2821962;84;21076;-56
2022/11/18 15:17:28;;;;;;;17.02;10.58;;;;;;;0.80;76.16;99423.46;2825990;82;21074;-57
2022/11/18 15:21:31;;;;;;;15.68;10.13;;;;;;;0.82;75.56;99422.91;2836087;82;21000;-56
2022/11/18 15:25:32;;;;;;;9.55;6.53;;;;;;;0.89;76.62;99433.89;2830345;83;20972;-55
2022/11/18 15:29:34;;;;;;;9.20;6.58;;;;;;;0.96;76.48;99432.13;2811855;83;21282;-55
2022/11/18 15:33:36;;;;;;;6.80;5.28;;;;;;;1.03;75.93;99435.25;2801921;83;21063;-57
2022/11/18 15:37:37;;;;;;;12.43;6.67;;;;;;;1.08;74.77;99433.70;2814848;84;20995;-56
2022/11/18 15:41:41;;;;;;;8.10;5.45;;;;;;;1.11;74.76;99441.38;2833580;83;21019;-56
2022/11/18 15:45:45;;;;;;;6.62;5.92;;;;;;;1.20;75.48;99447.42;2826178;83;21066;-56
2022/11/18 15:49:46;;;;;;;49.73;20.85;;;;;;;1.27;75.32;99450.06;2733411;86;21080;-57
2022/11/18 15:53:55;;;;;;;53.23;24.90;;;;;;;1.36;76.37;99450.01;2747408;83;21055;-58
2022/11/18 15:57:57;;;;;;;14.10;9.48;;;;;;;1.46;76.15;99453.40;2837154;81;21087;-55
2022/11/18 16:01:58;;;;;;;29.60;16.93;;;;;;;1.54;75.34;99458.58;2754123;85;21271;-55
2022/11/18 16:05:59;;;;;;;50.98;23.62;;;;;;;1.62;75.59;99457.31;2753196;85;21012;-55
2022/11/18 16:14:38;;;;;;;13.60;8.53;;;;;;;1.71;75.02;99465.48;2802273;83;21234;-57
2022/11/18 16:18:39;;;;;;;15.18;9.60;;;;;;;1.68;74.26;99473.98;2815527;84;20953;-57
2022/11/18 16:22:41;;;;;;;21.35;12.23;;;;;;;1.63;75.21;99470.80;2727997;86;21024;-57
2022/11/18 16:26:42;;;;;;;18.27;10.95;;;;;;;1.63;76.99;99477.35;2760802;85;20981;-57
2022/11/18 16:35:28;;;;;;;20.12;11.22;;;;;;;1.85;78.41;99473.85;2836236;84;21055;-57
2022/11/18 16:39:34;;;;;;;23.60;10.95;;;;;;;1.95;77.93;99472.84;2843211;82;22023;-56
2022/11/18 16:43:37;;;;;;;16.57;11.15;;;;;;;1.96;78.18;99477.61;2823163;83;20996;-57
2022/11/18 16:47:40;;;;;;;11.38;7.90;;;;;;;2.05;78.72;99485.40;2810644;82;31865;-57
2022/11/18 16:51:44;;;;;;;13.10;8.13;;;;;;;2.10;78.45;99488.13;2820392;83;21019;-58
2022/11/18 16:56:03;;;;;;;10.60;8.18;;;;;;;2.16;78.65;99489.55;2816806;82;20980;-58
2022/11/18 17:00:07;;;;;;;12.45;8.33;;;;;;;2.20;79.58;99494.98;2845019;81;21022;-57
2022/11/18 17:04:14;;;;;;;13.08;9.65;;;;;;;2.17;77.75;99502.22;2845370;83;21006;-58
2022/11/18 17:08:13;;;;;;;16.60;8.78;;;;;;;2.06;76.58;99500.20;2832399;83;21038;-58
2022/11/18 17:12:14;;;;;;;25.30;16.50;;;;;;;1.82;76.06;99508.58;2832270;83;21030;-57
2022/11/18 17:16:18;;;;;;;35.73;20.02;;;;;;;1.56;76.89;99510.94;2833743;83;21224;-59
2022/11/18 17:20:19;;;;;;;44.30;23.30;;;;;;;1.45;78.31;99512.86;2836884;81;20956;-58
2022/11/18 17:24:23;;;;;;;38.85;21.35;;;;;;;1.42;78.42;99511.23;2757008;83;20995;-57
2022/11/18 17:28:26;;;;;;;26.77;19.10;;;;;;;1.38;78.53;99512.34;2850164;81;20953;-58
2022/11/18 17:32:30;;;;;;;31.35;20.77;;;;;;;1.38;78.83;99515.45;2863998;82;21000;-59
2022/11/18 17:36:31;;;;;;;32.65;21.15;;;;;;;1.33;79.78;99527.95;2821518;83;20981;-58
2022/11/18 17:40:33;;;;;;;34.23;21.52;;;;;;;1.33;80.59;99531.88;2854133;79;21003;-58
2022/11/18 17:44:35;;;;;;;32.15;22.98;;;;;;;1.40;80.43;99534.55;2837489;82;21023;-58
2022/11/18 17:48:36;;;;;;;29.63;19.32;;;;;;;1.48;80.74;99534.13;2816611;83;21018;-61
2022/11/18 17:52:37;;;;;;;41.55;22.52;;;;;;;1.47;80.72;99535.03;2842287;82;21038;-59
2022/11/18 17:56:39;;;;;;;37.83;21.25;;;;;;;1.43;81.48;99535.69;2859899;81;20979;-61
2022/11/18 18:00:40;;;;;;;43.98;27.73;;;;;;;1.41;80.71;99529.69;2876237;78;20977;-58
2022/11/18 18:04:41;;;;;;;54.48;28.00;;;;;;;1.39;80.56;99536.31;2860453;82;21022;-58
2022/11/18 18:08:43;;;;;;;42.62;24.60;;;;;;;1.48;80.99;99537.58;2872236;82;21014;-58
2022/11/18 18:17:05;;;;;;;25.23;17.40;;;;;;;1.71;80.10;99555.95;2851269;81;21042;-59
2022/11/18 18:21:06;;;;;;;30.45;18.98;;;;;;;1.69;78.79;99551.72;2835560;82;21101;-58
2022/11/18 18:25:10;;;;;;;32.95;20.80;;;;;;;1.67;79.41;99554.89;2859991;77;21024;-58
2022/11/18 18:29:12;;;;;;;34.85;21.93;;;;;;;1.62;79.70;99555.14;2874469;81;21078;-58
2022/11/18 18:33:13;;;;;;;27.37;18.10;;;;;;;1.62;79.63;99563.01;2868338;82;20956;-58
2022/11/18 18:37:15;;;;;;;37.55;21.07;;;;;;;1.63;79.61;99569.94;2808566;80;21011;-58
2022/11/18 18:41:21;;;;;;;38.60;20.40;;;;;;;1.59;79.58;99572.84;2840143;82;21018;-58
2022/11/18 18:49:43;;;;;;;30.12;19.10;;;;;;;1.59;80.52;99581.53;2870755;77;20971;-58
2022/11/18 18:53:45;;;;;;;25.32;15.35;;;;;;;1.59;80.89;99578.91;2844342;83;20943;-58
2022/11/18 18:57:46;;;;;;;22.90;12.70;;;;;;;1.54;81.15;99577.86;2780536;84;20992;-60
2022/11/18 19:01:47;;;;;;;22.67;13.85;;;;;;;1.54;81.48;99575.72;2834612;84;21048;-60
2022/11/18 19:05:55;;;;;;;18.65;13.55;;;;;;;1.48;81.33;99583.93;2834440;83;21040;-61
2022/11/18 19:09:57;;;;;;;20.77;13.90;;;;;;;1.44;81.42;99593.73;2812308;83;21008;-58
2022/11/18 19:14:12;;;;;;;19.80;13.32;;;;;;;1.45;81.96;99591.48;2828137;83;21036;-61
2022/11/18 19:18:13;;;;;;;19.23;13.25;;;;;;;1.45;81.56;99594.55;2833698;82;20996;-60
2022/11/18 19:22:14;;;;;;;19.37;14.47;;;;;;;1.39;81.89;99602.31;2834513;81;21047;-59
2022/11/18 19:26:17;;;;;;;28.95;16.62;;;;;;;1.31;81.71;99600.56;2808202;83;21043;-58
2022/11/18 19:30:19;;;;;;;26.20;15.80;;;;;;;1.28;82.04;99602.91;2809103;84;21035;-59
2022/11/18 19:34:21;;;;;;;25.00;15.32;;;;;;;1.32;82.47;99602.25;2768692;82;20980;-60
2022/11/18 19:38:22;;;;;;;24.77;16.77;;;;;;;1.31;82.12;99596.63;2791096;83;21074;-57
2022/11/18 19:42:41;;;;;;;22.87;16.02;;;;;;;1.30;82.83;99602.80;2824977;82;20988;-60
2022/11/18 19:46:42;;;;;;;25.77;16.50;;;;;;;1.24;83.21;99600.91;2773932;84;21039;-57
2022/11/18 19:50:43;;;;;;;31.10;19.32;;;;;;;1.26;83.46;99608.21;2812894;83;21062;-57
2022/11/18 19:54:45;;;;;;;23.75;15.70;;;;;;;1.30;84.07;99618.52;2839754;81;20984;-57